sensor_id;sensor_type;location;lat;lon;timestamp;P1;durP1;ratioP1;P2;durP2;ratioP2
19869;SDS011;10097;50.862;4.696;2023-04-03T00:00:29;12.53;;;5.83;;
19869;SDS011;10097;50.862;4.696;2023-04-03T00:02:56;13.30;;;5.50;;
19869;SDS011;10097;50.862;4.696;2023-04-03T00:05:23;10.37;;;5.80;;
19869;SDS011;10097;50.862;4.696;2023-04-03T00:07:49;11.70;;;5.63;;
19869;SDS011;10097;50.862;4.696;2023-04-03T00:10:16;14.30;;;5.57;;
19869;SDS011;10097;50.862;4.696;2023-04-03T00:12:43;12.30;;;5.87;;
19869;SDS011;10097;50.862;4.696;2023-04-03T00:15:10;13.33;;;5.70;;
19869;SDS011;10097;50.862;4.696;2023-04-03T00:17:36;12.80;;;6.03;;
19869;SDS011;10097;50.862;4.696;2023-04-03T00:20:02;10.97;;;5.70;;
19869;SDS011;10097;50.862;4.696;2023-04-03T00:22:29;14.60;;;6.43;;
19869;SDS011;10097;50.862;4.696;2023-04-03T00:24:55;13.77;;;6.70;;
19869;SDS011;10097;50.862;4.696;2023-04-03T00:27:23;13.23;;;6.03;;
19869;SDS011;10097;50.862;4.696;2023-04-03T00:29:50;11.77;;;5.77;;
19869;SDS011;10097;50.862;4.696;2023-04-03T00:32:17;10.37;;;5.23;;
19869;SDS011;10097;50.862;4.696;2023-04-03T00:34:44;11.03;;;5.17;;
19869;SDS011;10097;50.862;4.696;2023-04-03T00:37:10;13.17;;;5.43;;
19869;SDS011;10097;50.862;4.696;2023-04-03T00:39:36;11.80;;;6.07;;
19869;SDS011;10097;50.862;4.696;2023-04-03T00:42:03;11.83;;;6.13;;
19869;SDS011;10097;50.862;4.696;2023-04-03T00:46:59;13.07;;;5.43;;
19869;SDS011;10097;50.862;4.696;2023-04-03T00:49:26;11.43;;;5.47;;
19869;SDS011;10097;50.862;4.696;2023-04-03T00:51:53;12.40;;;5.80;;
19869;SDS011;10097;50.862;4.696;2023-04-03T00:54:20;12.07;;;6.00;;
19869;SDS011;10097;50.862;4.696;2023-04-03T00:56:47;12.80;;;5.77;;
19869;SDS011;10097;50.862;4.696;2023-04-03T00:59:18;12.00;;;6.20;;
19869;SDS011;10097;50.862;4.696;2023-04-03T01:01:55;14.90;;;6.60;;
19869;SDS011;10097;50.862;4.696;2023-04-03T01:04:40;11.60;;;5.57;;
19869;SDS011;10097;50.862;4.696;2023-04-03T01:07:14;12.87;;;5.67;;
19869;SDS011;10097;50.862;4.696;2023-04-03T01:09:43;10.83;;;5.27;;
19869;SDS011;10097;50.862;4.696;2023-04-03T01:14:48;15.40;;;6.07;;
19869;SDS011;10097;50.862;4.696;2023-04-03T01:20:14;12.00;;;5.70;;
19869;SDS011;10097;50.862;4.696;2023-04-03T01:22:59;11.67;;;6.00;;
19869;SDS011;10097;50.862;4.696;2023-04-03T01:25:32;13.63;;;6.40;;
19869;SDS011;10097;50.862;4.696;2023-04-03T01:28:00;18.20;;;6.23;;
19869;SDS011;10097;50.862;4.696;2023-04-03T01:30:28;13.43;;;6.00;;
19869;SDS011;10097;50.862;4.696;2023-04-03T01:32:57;11.47;;;6.07;;
19869;SDS011;10097;50.862;4.696;2023-04-03T01:35:25;13.93;;;5.87;;
19869;SDS011;10097;50.862;4.696;2023-04-03T01:37:52;14.27;;;6.10;;
19869;SDS011;10097;50.862;4.696;2023-04-03T01:40:19;13.00;;;6.30;;
19869;SDS011;10097;50.862;4.696;2023-04-03T01:42:45;11.90;;;5.70;;
19869;SDS011;10097;50.862;4.696;2023-04-03T01:45:11;14.63;;;6.57;;
19869;SDS011;10097;50.862;4.696;2023-04-03T01:47:46;13.20;;;5.90;;
19869;SDS011;10097;50.862;4.696;2023-04-03T01:50:12;11.70;;;5.97;;
19869;SDS011;10097;50.862;4.696;2023-04-03T01:52:44;13.40;;;5.97;;
19869;SDS011;10097;50.862;4.696;2023-04-03T01:55:11;12.50;;;5.53;;
19869;SDS011;10097;50.862;4.696;2023-04-03T01:57:36;13.53;;;6.20;;
19869;SDS011;10097;50.862;4.696;2023-04-03T02:00:03;15.67;;;6.47;;
19869;SDS011;10097;50.862;4.696;2023-04-03T02:02:29;11.90;;;6.07;;
19869;SDS011;10097;50.862;4.696;2023-04-03T02:04:55;12.83;;;5.83;;
19869;SDS011;10097;50.862;4.696;2023-04-03T02:07:21;13.60;;;5.47;;
19869;SDS011;10097;50.862;4.696;2023-04-03T02:09:48;12.50;;;6.03;;
19869;SDS011;10097;50.862;4.696;2023-04-03T02:12:16;13.27;;;5.90;;
19869;SDS011;10097;50.862;4.696;2023-04-03T02:14:42;14.77;;;5.53;;
19869;SDS011;10097;50.862;4.696;2023-04-03T02:17:08;12.03;;;6.10;;
19869;SDS011;10097;50.862;4.696;2023-04-03T02:19:35;13.40;;;6.00;;
19869;SDS011;10097;50.862;4.696;2023-04-03T02:22:01;11.60;;;5.70;;
19869;SDS011;10097;50.862;4.696;2023-04-03T02:24:28;14.03;;;5.73;;
19869;SDS011;10097;50.862;4.696;2023-04-03T02:26:54;14.17;;;6.27;;
19869;SDS011;10097;50.862;4.696;2023-04-03T02:29:22;14.63;;;6.13;;
19869;SDS011;10097;50.862;4.696;2023-04-03T02:31:49;10.83;;;5.80;;
19869;SDS011;10097;50.862;4.696;2023-04-03T02:34:16;13.87;;;5.97;;
19869;SDS011;10097;50.862;4.696;2023-04-03T02:36:42;13.07;;;5.67;;
19869;SDS011;10097;50.862;4.696;2023-04-03T02:39:14;13.33;;;6.07;;
19869;SDS011;10097;50.862;4.696;2023-04-03T02:41:39;12.47;;;6.20;;
19869;SDS011;10097;50.862;4.696;2023-04-03T02:44:06;13.93;;;6.57;;
19869;SDS011;10097;50.862;4.696;2023-04-03T02:46:32;11.53;;;5.27;;
19869;SDS011;10097;50.862;4.696;2023-04-03T02:48:58;14.33;;;5.73;;
19869;SDS011;10097;50.862;4.696;2023-04-03T02:51:24;13.43;;;6.03;;
19869;SDS011;10097;50.862;4.696;2023-04-03T02:53:50;11.63;;;5.80;;
19869;SDS011;10097;50.862;4.696;2023-04-03T02:56:16;12.33;;;5.53;;
19869;SDS011;10097;50.862;4.696;2023-04-03T02:58:43;13.03;;;6.43;;
19869;SDS011;10097;50.862;4.696;2023-04-03T03:01:09;14.20;;;6.00;;
19869;SDS011;10097;50.862;4.696;2023-04-03T03:03:35;12.47;;;6.07;;
19869;SDS011;10097;50.862;4.696;2023-04-03T03:06:11;17.57;;;5.93;;
19869;SDS011;10097;50.862;4.696;2023-04-03T03:08:41;13.07;;;6.40;;
19869;SDS011;10097;50.862;4.696;2023-04-03T03:11:09;14.03;;;5.93;;
19869;SDS011;10097;50.862;4.696;2023-04-03T03:13:35;12.33;;;6.17;;
19869;SDS011;10097;50.862;4.696;2023-04-03T03:16:04;11.93;;;6.17;;
19869;SDS011;10097;50.862;4.696;2023-04-03T03:18:31;10.87;;;6.10;;
19869;SDS011;10097;50.862;4.696;2023-04-03T03:20:57;12.47;;;6.57;;
19869;SDS011;10097;50.862;4.696;2023-04-03T03:23:25;14.43;;;6.37;;
19869;SDS011;10097;50.862;4.696;2023-04-03T03:25:56;13.63;;;6.87;;
19869;SDS011;10097;50.862;4.696;2023-04-03T03:28:23;16.93;;;7.63;;
19869;SDS011;10097;50.862;4.696;2023-04-03T03:30:49;13.33;;;6.10;;
19869;SDS011;10097;50.862;4.696;2023-04-03T03:33:15;14.83;;;7.17;;
19869;SDS011;10097;50.862;4.696;2023-04-03T03:35:43;15.93;;;6.93;;
19869;SDS011;10097;50.862;4.696;2023-04-03T03:38:09;15.30;;;7.07;;
19869;SDS011;10097;50.862;4.696;2023-04-03T03:40:35;11.43;;;6.43;;
19869;SDS011;10097;50.862;4.696;2023-04-03T03:43:01;11.87;;;6.60;;
19869;SDS011;10097;50.862;4.696;2023-04-03T03:45:27;12.87;;;6.47;;
19869;SDS011;10097;50.862;4.696;2023-04-03T03:47:54;16.10;;;7.40;;
19869;SDS011;10097;50.862;4.696;2023-04-03T03:50:19;14.13;;;7.40;;
19869;SDS011;10097;50.862;4.696;2023-04-03T03:52:46;14.73;;;7.27;;
19869;SDS011;10097;50.862;4.696;2023-04-03T03:55:12;13.73;;;6.40;;
19869;SDS011;10097;50.862;4.696;2023-04-03T03:57:38;15.90;;;6.70;;
19869;SDS011;10097;50.862;4.696;2023-04-03T04:00:04;13.70;;;6.33;;
19869;SDS011;10097;50.862;4.696;2023-04-03T04:02:32;18.53;;;7.27;;
19869;SDS011;10097;50.862;4.696;2023-04-03T04:04:58;13.63;;;7.03;;
19869;SDS011;10097;50.862;4.696;2023-04-03T04:07:23;18.23;;;6.57;;
19869;SDS011;10097;50.862;4.696;2023-04-03T04:09:49;12.73;;;6.73;;
19869;SDS011;10097;50.862;4.696;2023-04-03T04:12:15;13.80;;;6.13;;
19869;SDS011;10097;50.862;4.696;2023-04-03T04:14:41;11.50;;;6.43;;
19869;SDS011;10097;50.862;4.696;2023-04-03T04:17:06;15.67;;;6.53;;
19869;SDS011;10097;50.862;4.696;2023-04-03T04:19:32;13.37;;;6.70;;
19869;SDS011;10097;50.862;4.696;2023-04-03T04:21:58;13.27;;;7.03;;
19869;SDS011;10097;50.862;4.696;2023-04-03T04:24:24;13.80;;;6.60;;
19869;SDS011;10097;50.862;4.696;2023-04-03T04:26:50;13.00;;;6.40;;
19869;SDS011;10097;50.862;4.696;2023-04-03T04:29:15;12.47;;;6.63;;
19869;SDS011;10097;50.862;4.696;2023-04-03T04:31:41;15.53;;;7.23;;
19869;SDS011;10097;50.862;4.696;2023-04-03T04:34:07;12.23;;;6.37;;
19869;SDS011;10097;50.862;4.696;2023-04-03T04:36:33;17.87;;;7.50;;
19869;SDS011;10097;50.862;4.696;2023-04-03T04:39:06;15.00;;;7.07;;
19869;SDS011;10097;50.862;4.696;2023-04-03T04:41:32;13.17;;;6.63;;
19869;SDS011;10097;50.862;4.696;2023-04-03T04:43:59;15.80;;;7.10;;
19869;SDS011;10097;50.862;4.696;2023-04-03T04:46:25;11.57;;;6.73;;
19869;SDS011;10097;50.862;4.696;2023-04-03T04:48:56;15.77;;;7.00;;
19869;SDS011;10097;50.862;4.696;2023-04-03T04:51:22;13.63;;;6.97;;
19869;SDS011;10097;50.862;4.696;2023-04-03T04:53:48;14.00;;;6.90;;
19869;SDS011;10097;50.862;4.696;2023-04-03T04:56:13;12.90;;;6.70;;
19869;SDS011;10097;50.862;4.696;2023-04-03T04:58:39;15.17;;;7.27;;
19869;SDS011;10097;50.862;4.696;2023-04-03T05:01:07;16.77;;;7.03;;
19869;SDS011;10097;50.862;4.696;2023-04-03T05:03:34;14.33;;;7.13;;
19869;SDS011;10097;50.862;4.696;2023-04-03T05:06:00;16.93;;;7.53;;
19869;SDS011;10097;50.862;4.696;2023-04-03T05:08:26;15.40;;;7.17;;
19869;SDS011;10097;50.862;4.696;2023-04-03T05:10:52;18.67;;;7.90;;
19869;SDS011;10097;50.862;4.696;2023-04-03T05:13:18;14.80;;;6.90;;
19869;SDS011;10097;50.862;4.696;2023-04-03T05:15:46;15.33;;;7.80;;
19869;SDS011;10097;50.862;4.696;2023-04-03T05:18:12;15.33;;;7.47;;
19869;SDS011;10097;50.862;4.696;2023-04-03T05:20:39;16.20;;;7.73;;
19869;SDS011;10097;50.862;4.696;2023-04-03T05:23:05;18.33;;;7.97;;
19869;SDS011;10097;50.862;4.696;2023-04-03T05:25:31;16.30;;;7.70;;
19869;SDS011;10097;50.862;4.696;2023-04-03T05:28:03;15.93;;;7.77;;
19869;SDS011;10097;50.862;4.696;2023-04-03T05:30:30;15.50;;;7.77;;
19869;SDS011;10097;50.862;4.696;2023-04-03T05:32:57;14.47;;;7.97;;
19869;SDS011;10097;50.862;4.696;2023-04-03T05:35:23;17.80;;;8.53;;
19869;SDS011;10097;50.862;4.696;2023-04-03T05:37:49;16.60;;;8.87;;
19869;SDS011;10097;50.862;4.696;2023-04-03T05:40:15;22.10;;;8.30;;
19869;SDS011;10097;50.862;4.696;2023-04-03T05:42:42;14.70;;;8.10;;
19869;SDS011;10097;50.862;4.696;2023-04-03T05:45:08;18.53;;;8.93;;
19869;SDS011;10097;50.862;4.696;2023-04-03T05:47:34;18.70;;;9.40;;
19869;SDS011;10097;50.862;4.696;2023-04-03T05:50:00;17.40;;;8.63;;
19869;SDS011;10097;50.862;4.696;2023-04-03T05:52:27;18.97;;;9.80;;
19869;SDS011;10097;50.862;4.696;2023-04-03T05:54:55;16.13;;;8.17;;
19869;SDS011;10097;50.862;4.696;2023-04-03T05:57:21;18.43;;;9.13;;
19869;SDS011;10097;50.862;4.696;2023-04-03T05:59:48;17.87;;;8.93;;
19869;SDS011;10097;50.862;4.696;2023-04-03T06:02:17;15.70;;;9.00;;
19869;SDS011;10097;50.862;4.696;2023-04-03T06:04:44;15.40;;;9.47;;
19869;SDS011;10097;50.862;4.696;2023-04-03T06:07:14;17.10;;;9.50;;
19869;SDS011;10097;50.862;4.696;2023-04-03T06:09:42;21.73;;;9.53;;
19869;SDS011;10097;50.862;4.696;2023-04-03T06:12:08;22.67;;;11.60;;
19869;SDS011;10097;50.862;4.696;2023-04-03T06:14:34;19.57;;;10.70;;
19869;SDS011;10097;50.862;4.696;2023-04-03T06:17:02;19.53;;;10.93;;
19869;SDS011;10097;50.862;4.696;2023-04-03T06:19:28;27.50;;;12.93;;
19869;SDS011;10097;50.862;4.696;2023-04-03T06:21:53;26.10;;;12.70;;
19869;SDS011;10097;50.862;4.696;2023-04-03T06:24:19;22.63;;;12.20;;
19869;SDS011;10097;50.862;4.696;2023-04-03T06:26:47;27.40;;;12.57;;
19869;SDS011;10097;50.862;4.696;2023-04-03T06:29:14;21.57;;;13.10;;
19869;SDS011;10097;50.862;4.696;2023-04-03T06:31:44;22.13;;;12.53;;
19869;SDS011;10097;50.862;4.696;2023-04-03T06:34:10;22.60;;;12.40;;
19869;SDS011;10097;50.862;4.696;2023-04-03T06:36:37;19.70;;;12.07;;
19869;SDS011;10097;50.862;4.696;2023-04-03T06:39:03;23.53;;;12.03;;
19869;SDS011;10097;50.862;4.696;2023-04-03T06:41:32;20.33;;;11.07;;
19869;SDS011;10097;50.862;4.696;2023-04-03T06:43:59;24.40;;;11.83;;
19869;SDS011;10097;50.862;4.696;2023-04-03T06:46:25;24.53;;;10.90;;
19869;SDS011;10097;50.862;4.696;2023-04-03T06:48:52;20.17;;;11.10;;
19869;SDS011;10097;50.862;4.696;2023-04-03T06:51:25;18.80;;;11.27;;
19869;SDS011;10097;50.862;4.696;2023-04-03T06:53:53;18.20;;;10.87;;
19869;SDS011;10097;50.862;4.696;2023-04-03T06:56:22;21.83;;;10.77;;
19869;SDS011;10097;50.862;4.696;2023-04-03T06:58:50;18.17;;;9.77;;
19869;SDS011;10097;50.862;4.696;2023-04-03T07:01:17;19.13;;;10.30;;
19869;SDS011;10097;50.862;4.696;2023-04-03T07:03:44;18.40;;;10.00;;
19869;SDS011;10097;50.862;4.696;2023-04-03T07:06:13;21.27;;;9.53;;
19869;SDS011;10097;50.862;4.696;2023-04-03T07:08:41;18.57;;;9.70;;
19869;SDS011;10097;50.862;4.696;2023-04-03T07:11:08;19.00;;;9.10;;
19869;SDS011;10097;50.862;4.696;2023-04-03T07:13:39;15.53;;;9.37;;
19869;SDS011;10097;50.862;4.696;2023-04-03T07:16:05;18.90;;;9.30;;
19869;SDS011;10097;50.862;4.696;2023-04-03T07:18:32;18.00;;;9.43;;
19869;SDS011;10097;50.862;4.696;2023-04-03T07:20:59;17.50;;;8.53;;
19869;SDS011;10097;50.862;4.696;2023-04-03T07:23:26;15.17;;;8.43;;
19869;SDS011;10097;50.862;4.696;2023-04-03T07:25:52;19.83;;;9.10;;
19869;SDS011;10097;50.862;4.696;2023-04-03T07:28:25;15.73;;;8.83;;
19869;SDS011;10097;50.862;4.696;2023-04-03T07:31:05;16.60;;;8.10;;
19869;SDS011;10097;50.862;4.696;2023-04-03T07:33:45;16.07;;;7.70;;
19869;SDS011;10097;50.862;4.696;2023-04-03T07:36:14;16.27;;;8.03;;
19869;SDS011;10097;50.862;4.696;2023-04-03T07:38:42;12.37;;;7.20;;
19869;SDS011;10097;50.862;4.696;2023-04-03T07:41:10;12.93;;;6.80;;
19869;SDS011;10097;50.862;4.696;2023-04-03T07:43:40;15.67;;;7.00;;
19869;SDS011;10097;50.862;4.696;2023-04-03T07:46:07;16.77;;;6.70;;
19869;SDS011;10097;50.862;4.696;2023-04-03T07:48:34;12.83;;;6.80;;
19869;SDS011;10097;50.862;4.696;2023-04-03T07:51:05;14.60;;;6.60;;
19869;SDS011;10097;50.862;4.696;2023-04-03T07:53:31;16.60;;;6.37;;
19869;SDS011;10097;50.862;4.696;2023-04-03T07:55:57;12.00;;;6.00;;
19869;SDS011;10097;50.862;4.696;2023-04-03T07:58:25;15.57;;;5.63;;
19869;SDS011;10097;50.862;4.696;2023-04-03T08:00:51;12.33;;;6.10;;
19869;SDS011;10097;50.862;4.696;2023-04-03T08:03:17;11.17;;;5.60;;
19869;SDS011;10097;50.862;4.696;2023-04-03T08:05:44;13.47;;;5.40;;
19869;SDS011;10097;50.862;4.696;2023-04-03T08:08:13;12.77;;;5.63;;
19869;SDS011;10097;50.862;4.696;2023-04-03T08:10:41;13.63;;;5.50;;
19869;SDS011;10097;50.862;4.696;2023-04-03T08:13:07;12.67;;;5.37;;
19869;SDS011;10097;50.862;4.696;2023-04-03T08:15:35;12.67;;;5.20;;
19869;SDS011;10097;50.862;4.696;2023-04-03T08:18:01;14.17;;;5.33;;
19869;SDS011;10097;50.862;4.696;2023-04-03T08:20:29;13.77;;;5.40;;
19869;SDS011;10097;50.862;4.696;2023-04-03T08:22:56;11.60;;;4.80;;
19869;SDS011;10097;50.862;4.696;2023-04-03T08:25:22;12.53;;;4.73;;
19869;SDS011;10097;50.862;4.696;2023-04-03T08:27:54;10.57;;;4.47;;
19869;SDS011;10097;50.862;4.696;2023-04-03T08:30:21;8.57;;;4.10;;
19869;SDS011;10097;50.862;4.696;2023-04-03T08:32:55;12.50;;;4.23;;
19869;SDS011;10097;50.862;4.696;2023-04-03T08:35:23;9.03;;;3.90;;
19869;SDS011;10097;50.862;4.696;2023-04-03T08:37:50;12.27;;;4.13;;
19869;SDS011;10097;50.862;4.696;2023-04-03T08:40:17;9.60;;;4.00;;
19869;SDS011;10097;50.862;4.696;2023-04-03T08:45:17;9.33;;;3.60;;
19869;SDS011;10097;50.862;4.696;2023-04-03T08:48:00;9.73;;;4.20;;
19869;SDS011;10097;50.862;4.696;2023-04-03T08:50:43;12.50;;;3.80;;
19869;SDS011;10097;50.862;4.696;2023-04-03T08:53:14;9.80;;;3.77;;
19869;SDS011;10097;50.862;4.696;2023-04-03T08:55:53;13.70;;;3.20;;
19869;SDS011;10097;50.862;4.696;2023-04-03T08:58:44;10.73;;;4.00;;
19869;SDS011;10097;50.862;4.696;2023-04-03T09:01:26;8.67;;;3.43;;
19869;SDS011;10097;50.862;4.696;2023-04-03T09:04:00;9.77;;;3.23;;
19869;SDS011;10097;50.862;4.696;2023-04-03T09:06:26;11.00;;;3.20;;
19869;SDS011;10097;50.862;4.696;2023-04-03T09:23:19;13.23;;;2.60;;
19869;SDS011;10097;50.862;4.696;2023-04-03T09:29:01;7.13;;;2.40;;
19869;SDS011;10097;50.862;4.696;2023-04-03T09:31:39;5.53;;;2.10;;
19869;SDS011;10097;50.862;4.696;2023-04-03T09:34:25;9.03;;;2.47;;
19869;SDS011;10097;50.862;4.696;2023-04-03T09:36:55;6.50;;;2.27;;
19869;SDS011;10097;50.862;4.696;2023-04-03T09:39:25;7.30;;;2.00;;
19869;SDS011;10097;50.862;4.696;2023-04-03T09:41:58;7.10;;;1.77;;
19869;SDS011;10097;50.862;4.696;2023-04-03T09:44:28;6.93;;;2.37;;
19869;SDS011;10097;50.862;4.696;2023-04-03T09:50:17;12.33;;;3.77;;
19869;SDS011;10097;50.862;4.696;2023-04-03T09:52:45;6.30;;;2.23;;
19869;SDS011;10097;50.862;4.696;2023-04-03T09:55:22;9.50;;;2.53;;
19869;SDS011;10097;50.862;4.696;2023-04-03T09:57:54;8.03;;;2.70;;
19869;SDS011;10097;50.862;4.696;2023-04-03T10:00:28;11.30;;;2.40;;
19869;SDS011;10097;50.862;4.696;2023-04-03T10:03:00;6.97;;;2.40;;
19869;SDS011;10097;50.862;4.696;2023-04-03T10:05:40;8.03;;;2.20;;
19869;SDS011;10097;50.862;4.696;2023-04-03T10:10:43;9.63;;;2.73;;
19869;SDS011;10097;50.862;4.696;2023-04-03T10:15:46;8.43;;;2.63;;
19869;SDS011;10097;50.862;4.696;2023-04-03T10:21:06;9.57;;;2.03;;
19869;SDS011;10097;50.862;4.696;2023-04-03T10:23:44;9.60;;;2.47;;
19869;SDS011;10097;50.862;4.696;2023-04-03T10:34:33;9.20;;;2.60;;
19869;SDS011;10097;50.862;4.696;2023-04-03T10:39:59;6.83;;;1.87;;
19869;SDS011;10097;50.862;4.696;2023-04-03T10:45:48;7.70;;;1.90;;
19869;SDS011;10097;50.862;4.696;2023-04-03T10:51:48;5.40;;;1.60;;
19869;SDS011;10097;50.862;4.696;2023-04-03T10:54:25;9.53;;;1.73;;
19869;SDS011;10097;50.862;4.696;2023-04-03T10:57:01;8.83;;;2.20;;
19869;SDS011;10097;50.862;4.696;2023-04-03T10:59:39;7.90;;;1.60;;
19869;SDS011;10097;50.862;4.696;2023-04-03T11:05:06;5.30;;;1.23;;
19869;SDS011;10097;50.862;4.696;2023-04-03T11:07:47;6.93;;;1.63;;
19869;SDS011;10097;50.862;4.696;2023-04-03T11:10:24;9.27;;;1.87;;
19869;SDS011;10097;50.862;4.696;2023-04-03T11:13:43;5.00;;;1.77;;
19869;SDS011;10097;50.862;4.696;2023-04-03T11:16:00;5.27;;;1.30;;
19869;SDS011;10097;50.862;4.696;2023-04-03T11:21:42;6.57;;;1.50;;
19869;SDS011;10097;50.862;4.696;2023-04-03T11:24:20;7.33;;;2.03;;
19869;SDS011;10097;50.862;4.696;2023-04-03T11:26:50;8.57;;;1.87;;
19869;SDS011;10097;50.862;4.696;2023-04-03T11:29:19;9.07;;;2.30;;
19869;SDS011;10097;50.862;4.696;2023-04-03T11:34:37;4.13;;;1.20;;
19869;SDS011;10097;50.862;4.696;2023-04-03T11:37:20;5.63;;;1.70;;
19869;SDS011;10097;50.862;4.696;2023-04-03T11:39:57;4.03;;;1.40;;
19869;SDS011;10097;50.862;4.696;2023-04-03T11:42:37;7.43;;;1.53;;
19869;SDS011;10097;50.862;4.696;2023-04-03T11:47:55;3.97;;;1.27;;
19869;SDS011;10097;50.862;4.696;2023-04-03T11:50:46;8.87;;;1.63;;
19869;SDS011;10097;50.862;4.696;2023-04-03T11:55:42;4.43;;;1.40;;
19869;SDS011;10097;50.862;4.696;2023-04-03T12:00:56;7.53;;;1.70;;
19869;SDS011;10097;50.862;4.696;2023-04-03T12:05:51;4.37;;;1.53;;
19869;SDS011;10097;50.862;4.696;2023-04-03T12:16:27;9.87;;;1.47;;
19869;SDS011;10097;50.862;4.696;2023-04-03T12:22:18;5.37;;;1.13;;
19869;SDS011;10097;50.862;4.696;2023-04-03T12:24:46;4.40;;;1.00;;
19869;SDS011;10097;50.862;4.696;2023-04-03T12:33:02;8.40;;;1.30;;
19869;SDS011;10097;50.862;4.696;2023-04-03T12:35:47;4.57;;;1.00;;
19869;SDS011;10097;50.862;4.696;2023-04-03T12:48:46;3.43;;;1.10;;
19869;SDS011;10097;50.862;4.696;2023-04-03T12:52:03;3.17;;;0.90;;
19869;SDS011;10097;50.862;4.696;2023-04-03T12:54:16;5.17;;;1.20;;
19869;SDS011;10097;50.862;4.696;2023-04-03T12:57:12;4.83;;;1.13;;
19869;SDS011;10097;50.862;4.696;2023-04-03T12:59:41;5.83;;;1.20;;
19869;SDS011;10097;50.862;4.696;2023-04-03T13:02:20;4.30;;;1.33;;
19869;SDS011;10097;50.862;4.696;2023-04-03T13:04:49;4.87;;;1.23;;
19869;SDS011;10097;50.862;4.696;2023-04-03T13:07:20;4.43;;;1.20;;
19869;SDS011;10097;50.862;4.696;2023-04-03T13:09:59;2.90;;;1.27;;
19869;SDS011;10097;50.862;4.696;2023-04-03T13:12:33;5.53;;;1.47;;
19869;SDS011;10097;50.862;4.696;2023-04-03T13:15:02;4.23;;;1.23;;
19869;SDS011;10097;50.862;4.696;2023-04-03T13:17:41;7.80;;;1.43;;
19869;SDS011;10097;50.862;4.696;2023-04-03T13:20:40;6.90;;;1.37;;
19869;SDS011;10097;50.862;4.696;2023-04-03T13:23:07;4.40;;;1.53;;
19869;SDS011;10097;50.862;4.696;2023-04-03T13:25:35;4.80;;;1.73;;
19869;SDS011;10097;50.862;4.696;2023-04-03T13:28:05;4.23;;;1.40;;
19869;SDS011;10097;50.862;4.696;2023-04-03T13:30:36;5.93;;;1.63;;
19869;SDS011;10097;50.862;4.696;2023-04-03T13:33:04;5.53;;;1.37;;
19869;SDS011;10097;50.862;4.696;2023-04-03T13:35:43;8.60;;;1.30;;
19869;SDS011;10097;50.862;4.696;2023-04-03T13:40:51;4.57;;;1.40;;
19869;SDS011;10097;50.862;4.696;2023-04-03T13:43:20;5.47;;;1.80;;
19869;SDS011;10097;50.862;4.696;2023-04-03T13:45:55;4.07;;;1.20;;
19869;SDS011;10097;50.862;4.696;2023-04-03T13:48:45;7.15;;;2.80;;
19869;SDS011;10097;50.862;4.696;2023-04-03T13:53:45;2.73;;;1.00;;
19869;SDS011;10097;50.862;4.696;2023-04-03T14:04:26;12.17;;;3.37;;
19869;SDS011;10097;50.862;4.696;2023-04-03T14:06:55;3.80;;;1.40;;
19869;SDS011;10097;50.862;4.696;2023-04-03T14:09:21;3.33;;;0.90;;
19869;SDS011;10097;50.862;4.696;2023-04-03T14:11:52;3.33;;;1.10;;
19869;SDS011;10097;50.862;4.696;2023-04-03T14:14:21;5.53;;;1.27;;
19869;SDS011;10097;50.862;4.696;2023-04-03T14:16:56;5.63;;;1.33;;
19869;SDS011;10097;50.862;4.696;2023-04-03T14:19:34;2.87;;;1.00;;
19869;SDS011;10097;50.862;4.696;2023-04-03T14:22:03;5.47;;;1.15;;
19869;SDS011;10097;50.862;4.696;2023-04-03T14:24:41;6.55;;;1.73;;
19869;SDS011;10097;50.862;4.696;2023-04-03T14:27:13;4.30;;;1.60;;
19869;SDS011;10097;50.862;4.696;2023-04-03T14:29:43;6.68;;;1.52;;
19869;SDS011;10097;50.862;4.696;2023-04-03T14:32:10;8.33;;;2.00;;
19869;SDS011;10097;50.862;4.696;2023-04-03T14:34:38;4.90;;;1.37;;
19869;SDS011;10097;50.862;4.696;2023-04-03T14:37:04;9.83;;;3.40;;
19869;SDS011;10097;50.862;4.696;2023-04-03T14:39:34;5.28;;;1.40;;
19869;SDS011;10097;50.862;4.696;2023-04-03T14:42:00;5.67;;;1.50;;
19869;SDS011;10097;50.862;4.696;2023-04-03T14:44:25;5.57;;;1.90;;
19869;SDS011;10097;50.862;4.696;2023-04-03T14:46:52;8.50;;;2.40;;
19869;SDS011;10097;50.862;4.696;2023-04-03T14:49:19;4.23;;;1.50;;
19869;SDS011;10097;50.862;4.696;2023-04-03T14:51:47;7.47;;;1.70;;
19869;SDS011;10097;50.862;4.696;2023-04-03T14:54:14;7.80;;;1.60;;
19869;SDS011;10097;50.862;4.696;2023-04-03T14:56:42;5.07;;;1.40;;
19869;SDS011;10097;50.862;4.696;2023-04-03T14:59:09;4.90;;;1.57;;
19869;SDS011;10097;50.862;4.696;2023-04-03T15:01:37;7.07;;;1.53;;
19869;SDS011;10097;50.862;4.696;2023-04-03T15:04:16;6.43;;;1.50;;
19869;SDS011;10097;50.862;4.696;2023-04-03T15:06:43;5.37;;;1.57;;
19869;SDS011;10097;50.862;4.696;2023-04-03T15:09:20;6.80;;;1.80;;
19869;SDS011;10097;50.862;4.696;2023-04-03T15:11:48;5.87;;;1.97;;
19869;SDS011;10097;50.862;4.696;2023-04-03T15:14:15;5.13;;;1.60;;
19869;SDS011;10097;50.862;4.696;2023-04-03T15:16:41;6.65;;;1.48;;
19869;SDS011;10097;50.862;4.696;2023-04-03T15:19:06;7.60;;;1.98;;
19869;SDS011;10097;50.862;4.696;2023-04-03T15:21:32;6.07;;;1.58;;
19869;SDS011;10097;50.862;4.696;2023-04-03T15:23:58;6.18;;;2.17;;
19869;SDS011;10097;50.862;4.696;2023-04-03T15:26:24;6.07;;;2.08;;
19869;SDS011;10097;50.862;4.696;2023-04-03T15:28:50;8.10;;;3.42;;
19869;SDS011;10097;50.862;4.696;2023-04-03T15:31:17;20.13;;;8.05;;
19869;SDS011;10097;50.862;4.696;2023-04-03T15:33:43;7.53;;;2.45;;
19869;SDS011;10097;50.862;4.696;2023-04-03T15:36:09;5.28;;;1.65;;
19869;SDS011;10097;50.862;4.696;2023-04-03T15:38:34;6.35;;;1.83;;
19869;SDS011;10097;50.862;4.696;2023-04-03T15:41:03;9.77;;;1.93;;
19869;SDS011;10097;50.862;4.696;2023-04-03T15:43:29;7.20;;;2.00;;
19869;SDS011;10097;50.862;4.696;2023-04-03T15:45:56;38.92;;;10.07;;
19869;SDS011;10097;50.862;4.696;2023-04-03T15:48:24;8.07;;;2.58;;
19869;SDS011;10097;50.862;4.696;2023-04-03T15:50:50;6.28;;;1.90;;
19869;SDS011;10097;50.862;4.696;2023-04-03T15:53:16;6.18;;;1.92;;
19869;SDS011;10097;50.862;4.696;2023-04-03T15:55:42;6.10;;;2.00;;
19869;SDS011;10097;50.862;4.696;2023-04-03T15:58:08;6.55;;;1.63;;
19869;SDS011;10097;50.862;4.696;2023-04-03T16:00:34;5.53;;;2.08;;
19869;SDS011;10097;50.862;4.696;2023-04-03T16:03:05;6.03;;;1.93;;
19869;SDS011;10097;50.862;4.696;2023-04-03T16:05:34;5.70;;;1.70;;
19869;SDS011;10097;50.862;4.696;2023-04-03T16:08:01;8.25;;;2.22;;
19869;SDS011;10097;50.862;4.696;2023-04-03T16:10:27;7.63;;;1.80;;
19869;SDS011;10097;50.862;4.696;2023-04-03T16:12:53;6.00;;;1.87;;
19869;SDS011;10097;50.862;4.696;2023-04-03T16:15:19;8.53;;;1.87;;
19869;SDS011;10097;50.862;4.696;2023-04-03T16:17:46;5.23;;;1.77;;
19869;SDS011;10097;50.862;4.696;2023-04-03T16:20:14;5.03;;;1.60;;
19869;SDS011;10097;50.862;4.696;2023-04-03T16:22:40;6.67;;;1.80;;
19869;SDS011;10097;50.862;4.696;2023-04-03T16:25:07;9.10;;;2.13;;
19869;SDS011;10097;50.862;4.696;2023-04-03T16:27:34;8.00;;;2.03;;
19869;SDS011;10097;50.862;4.696;2023-04-03T16:30:00;6.90;;;2.13;;
19869;SDS011;10097;50.862;4.696;2023-04-03T16:32:27;4.70;;;1.70;;
19869;SDS011;10097;50.862;4.696;2023-04-03T16:34:58;6.13;;;2.00;;
19869;SDS011;10097;50.862;4.696;2023-04-03T16:37:24;7.07;;;1.80;;
19869;SDS011;10097;50.862;4.696;2023-04-03T16:39:50;8.00;;;1.83;;
19869;SDS011;10097;50.862;4.696;2023-04-03T16:42:16;8.37;;;1.90;;
19869;SDS011;10097;50.862;4.696;2023-04-03T16:44:41;5.47;;;1.63;;
19869;SDS011;10097;50.862;4.696;2023-04-03T16:47:07;6.67;;;1.70;;